首页
METAR-TAF:

METAR-TAF

机场 :

特倫頓空軍基地

特伦顿, 安大略省, 加拿大

纬度: 44-07N, 经度: 077-32W, 海拔: 85米

当前天气观测

该预报发布于55分钟前的14:00 UTC
风速4节,风向
温度 21°C
湿度 73%
气压 1013 hPa
能見度: 24.1公里
多云层高于4500英尺
阴天层高于7300英尺

METAR: CYTR 221400Z 08004KT 15SM BKN045 OVC073 21/16 A2990 RMK SC6AC2 SLP124

时间: 10:55 (14:55 UTC)

预报

该预报发布于3小时和25分钟前的11:30 UTC
预报有效从22日的 12点(UTC)到 23日的 12点(UTC)
风速3节,风向多变
能見度: 10公里
多云层高于5000英尺
多云层高于11000英尺
短暂存在
从 22日的 12点(UTC)到 22日的 24点(UTC)
能見度: 10公里
小阵雨
成为
从 22日的 16点(UTC)到 22日的 18点(UTC)
风速10节,风向南转西南
从 23日的 0000点(UTC)
风速3节,风向多变
能見度: 10公里
散云层高于5000英尺

TAF: CYTR 221130Z 2212/2312 VRB03KT P6SM BKN050 BKN110 TEMPO 2212/2224 P6SM -SHRA BECMG 2216/2218 21010KT FM230000 VRB03KT P6SM SCT050 RMK NXT FCST BY 221800Z

超过4000个机场的气象观测和天气预报(METAR&TAF报告)。

可查询的气象台以黄色和红色小点在地图上表示。

将鼠标移到小点上方,可查看气象台名称。

然后点击查看天气观测和预报。

如需切换地图:点击带黑十字的绿色按钮放大地图;点击带横线的绿色按钮缩小地图;或者点击绿色箭头查看邻近地区的地图。


METAR-TAF: